sensor_id;sensor_type;location;lat;lon;timestamp;temperature;humidity
37560;DHT22;23398;50.928;7.084;2023-07-22T00:00:55;14.20;69.00
37560;DHT22;23398;50.928;7.084;2023-07-22T00:03:21;14.20;69.10
37560;DHT22;23398;50.928;7.084;2023-07-22T00:05:48;14.20;69.30
37560;DHT22;23398;50.928;7.084;2023-07-22T00:08:14;14.20;69.50
37560;DHT22;23398;50.928;7.084;2023-07-22T00:10:42;14.10;69.50
37560;DHT22;23398;50.928;7.084;2023-07-22T00:13:08;14.10;69.70
37560;DHT22;23398;50.928;7.084;2023-07-22T00:15:33;14.00;69.70
37560;DHT22;23398;50.928;7.084;2023-07-22T00:18:00;14.00;70.00
37560;DHT22;23398;50.928;7.084;2023-07-22T00:20:25;14.00;70.10
37560;DHT22;23398;50.928;7.084;2023-07-22T00:22:52;14.00;70.10
37560;DHT22;23398;50.928;7.084;2023-07-22T00:25:18;13.90;70.00
37560;DHT22;23398;50.928;7.084;2023-07-22T00:27:43;13.90;70.20
37560;DHT22;23398;50.928;7.084;2023-07-22T00:30:09;13.90;70.30
37560;DHT22;23398;50.928;7.084;2023-07-22T00:32:36;13.90;70.40
37560;DHT22;23398;50.928;7.084;2023-07-22T00:35:06;13.90;70.70
37560;DHT22;23398;50.928;7.084;2023-07-22T00:37:32;13.80;70.90
37560;DHT22;23398;50.928;7.084;2023-07-22T00:39:58;13.80;71.20
37560;DHT22;23398;50.928;7.084;2023-07-22T00:42:24;13.80;71.30
37560;DHT22;23398;50.928;7.084;2023-07-22T00:44:50;13.80;71.40
37560;DHT22;23398;50.928;7.084;2023-07-22T00:47:16;13.70;71.50
37560;DHT22;23398;50.928;7.084;2023-07-22T00:49:43;13.70;71.70
37560;DHT22;23398;50.928;7.084;2023-07-22T00:52:09;13.70;71.90
37560;DHT22;23398;50.928;7.084;2023-07-22T00:54:35;13.70;72.20
37560;DHT22;23398;50.928;7.084;2023-07-22T00:57:01;13.70;72.30
37560;DHT22;23398;50.928;7.084;2023-07-22T00:59:27;13.70;72.60
37560;DHT22;23398;50.928;7.084;2023-07-22T01:01:53;13.70;72.80
37560;DHT22;23398;50.928;7.084;2023-07-22T01:04:19;14.00;73.20
37560;DHT22;23398;50.928;7.084;2023-07-22T01:06:46;13.70;73.00
37560;DHT22;23398;50.928;7.084;2023-07-22T01:09:12;13.70;73.00
37560;DHT22;23398;50.928;7.084;2023-07-22T01:11:37;13.70;73.00
37560;DHT22;23398;50.928;7.084;2023-07-22T01:14:03;13.70;73.00
37560;DHT22;23398;50.928;7.084;2023-07-22T01:16:29;13.70;73.00
37560;DHT22;23398;50.928;7.084;2023-07-22T01:18:55;13.70;73.10
37560;DHT22;23398;50.928;7.084;2023-07-22T01:21:23;13.70;73.10
37560;DHT22;23398;50.928;7.084;2023-07-22T01:23:49;13.70;73.30
37560;DHT22;23398;50.928;7.084;2023-07-22T01:26:15;13.70;73.30
37560;DHT22;23398;50.928;7.084;2023-07-22T01:28:41;13.70;73.40
37560;DHT22;23398;50.928;7.084;2023-07-22T01:31:06;13.70;73.60
37560;DHT22;23398;50.928;7.084;2023-07-22T01:33:32;13.70;73.80
37560;DHT22;23398;50.928;7.084;2023-07-22T01:35:58;13.70;74.10
37560;DHT22;23398;50.928;7.084;2023-07-22T01:38:24;13.70;74.30
37560;DHT22;23398;50.928;7.084;2023-07-22T01:40:49;13.70;74.60
37560;DHT22;23398;50.928;7.084;2023-07-22T01:43:15;13.70;74.90
37560;DHT22;23398;50.928;7.084;2023-07-22T01:45:40;13.80;75.20
37560;DHT22;23398;50.928;7.084;2023-07-22T01:48:07;13.80;75.40
37560;DHT22;23398;50.928;7.084;2023-07-22T01:50:33;13.80;75.30
37560;DHT22;23398;50.928;7.084;2023-07-22T01:52:59;13.80;75.40
37560;DHT22;23398;50.928;7.084;2023-07-22T01:55:24;13.80;75.30
37560;DHT22;23398;50.928;7.084;2023-07-22T01:57:50;13.80;75.40
37560;DHT22;23398;50.928;7.084;2023-07-22T02:00:15;13.90;75.80
37560;DHT22;23398;50.928;7.084;2023-07-22T02:02:42;13.90;76.10
37560;DHT22;23398;50.928;7.084;2023-07-22T02:05:08;13.90;76.50
37560;DHT22;23398;50.928;7.084;2023-07-22T02:07:35;14.00;77.00
37560;DHT22;23398;50.928;7.084;2023-07-22T02:10:01;14.00;77.50
37560;DHT22;23398;50.928;7.084;2023-07-22T02:12:26;14.00;77.90
37560;DHT22;23398;50.928;7.084;2023-07-22T02:14:52;14.10;78.50
37560;DHT22;23398;50.928;7.084;2023-07-22T02:17:18;14.30;79.10
37560;DHT22;23398;50.928;7.084;2023-07-22T02:19:43;14.30;79.40
37560;DHT22;23398;50.928;7.084;2023-07-22T02:22:09;14.40;79.60
37560;DHT22;23398;50.928;7.084;2023-07-22T02:24:35;14.50;79.80
37560;DHT22;23398;50.928;7.084;2023-07-22T02:27:00;14.60;79.90
37560;DHT22;23398;50.928;7.084;2023-07-22T02:29:26;14.70;80.10
37560;DHT22;23398;50.928;7.084;2023-07-22T02:31:52;14.80;80.10
37560;DHT22;23398;50.928;7.084;2023-07-22T02:34:17;14.90;80.40
37560;DHT22;23398;50.928;7.084;2023-07-22T02:36:43;14.90;80.50
37560;DHT22;23398;50.928;7.084;2023-07-22T02:39:08;15.20;80.60
37560;DHT22;23398;50.928;7.084;2023-07-22T02:41:36;15.20;80.50
37560;DHT22;23398;50.928;7.084;2023-07-22T02:44:02;15.20;80.40
37560;DHT22;23398;50.928;7.084;2023-07-22T02:46:28;15.20;80.10
37560;DHT22;23398;50.928;7.084;2023-07-22T02:48:54;15.30;80.10
37560;DHT22;23398;50.928;7.084;2023-07-22T02:51:20;15.40;79.90
37560;DHT22;23398;50.928;7.084;2023-07-22T02:53:46;15.40;79.40
37560;DHT22;23398;50.928;7.084;2023-07-22T02:56:12;15.40;79.10
37560;DHT22;23398;50.928;7.084;2023-07-22T02:58:38;15.50;79.10
37560;DHT22;23398;50.928;7.084;2023-07-22T03:01:04;15.50;79.20
37560;DHT22;23398;50.928;7.084;2023-07-22T03:03:34;15.50;79.80
37560;DHT22;23398;50.928;7.084;2023-07-22T03:06:00;15.50;79.70
37560;DHT22;23398;50.928;7.084;2023-07-22T03:08:26;15.50;79.80
37560;DHT22;23398;50.928;7.084;2023-07-22T03:10:51;15.50;80.00
37560;DHT22;23398;50.928;7.084;2023-07-22T03:13:17;15.50;80.30
37560;DHT22;23398;50.928;7.084;2023-07-22T03:15:43;15.50;80.20
37560;DHT22;23398;50.928;7.084;2023-07-22T03:18:09;15.90;80.70
37560;DHT22;23398;50.928;7.084;2023-07-22T03:20:36;15.60;80.50
37560;DHT22;23398;50.928;7.084;2023-07-22T03:23:02;15.70;80.50
37560;DHT22;23398;50.928;7.084;2023-07-22T03:25:28;15.70;80.40
37560;DHT22;23398;50.928;7.084;2023-07-22T03:27:54;15.80;80.20
37560;DHT22;23398;50.928;7.084;2023-07-22T03:30:22;15.80;80.10
37560;DHT22;23398;50.928;7.084;2023-07-22T03:32:49;15.80;80.10
37560;DHT22;23398;50.928;7.084;2023-07-22T03:35:17;15.80;79.90
37560;DHT22;23398;50.928;7.084;2023-07-22T03:37:43;16.00;80.00
37560;DHT22;23398;50.928;7.084;2023-07-22T03:40:09;15.90;79.50
37560;DHT22;23398;50.928;7.084;2023-07-22T03:43:01;15.90;79.30
37560;DHT22;23398;50.928;7.084;2023-07-22T03:45:27;15.90;79.10
37560;DHT22;23398;50.928;7.084;2023-07-22T03:47:57;15.90;78.90
37560;DHT22;23398;50.928;7.084;2023-07-22T03:50:23;16.10;79.30
37560;DHT22;23398;50.928;7.084;2023-07-22T03:52:48;16.00;79.20
37560;DHT22;23398;50.928;7.084;2023-07-22T03:55:14;16.00;79.00
37560;DHT22;23398;50.928;7.084;2023-07-22T03:57:39;16.10;79.20
37560;DHT22;23398;50.928;7.084;2023-07-22T04:00:06;16.00;79.20
37560;DHT22;23398;50.928;7.084;2023-07-22T04:02:34;16.00;79.10
37560;DHT22;23398;50.928;7.084;2023-07-22T04:05:00;16.20;79.20
37560;DHT22;23398;50.928;7.084;2023-07-22T04:07:26;16.10;79.00
37560;DHT22;23398;50.928;7.084;2023-07-22T04:09:51;16.10;78.90
37560;DHT22;23398;50.928;7.084;2023-07-22T04:12:17;16.10;78.60
37560;DHT22;23398;50.928;7.084;2023-07-22T04:14:42;16.10;78.40
37560;DHT22;23398;50.928;7.084;2023-07-22T04:17:08;16.20;78.20
37560;DHT22;23398;50.928;7.084;2023-07-22T04:19:34;16.20;77.90
37560;DHT22;23398;50.928;7.084;2023-07-22T04:21:59;16.20;77.60
37560;DHT22;23398;50.928;7.084;2023-07-22T04:24:30;16.20;77.20
37560;DHT22;23398;50.928;7.084;2023-07-22T04:26:56;16.20;77.00
37560;DHT22;23398;50.928;7.084;2023-07-22T04:29:21;16.30;76.80
37560;DHT22;23398;50.928;7.084;2023-07-22T04:31:47;16.20;76.70
37560;DHT22;23398;50.928;7.084;2023-07-22T04:34:13;16.40;76.90
37560;DHT22;23398;50.928;7.084;2023-07-22T04:36:38;16.20;76.50
37560;DHT22;23398;50.928;7.084;2023-07-22T04:39:04;16.20;76.50
37560;DHT22;23398;50.928;7.084;2023-07-22T04:41:33;16.20;76.70
37560;DHT22;23398;50.928;7.084;2023-07-22T04:43:58;16.30;76.90
37560;DHT22;23398;50.928;7.084;2023-07-22T04:46:25;16.20;76.90
37560;DHT22;23398;50.928;7.084;2023-07-22T04:48:54;16.30;77.30
37560;DHT22;23398;50.928;7.084;2023-07-22T04:51:19;16.30;77.30
37560;DHT22;23398;50.928;7.084;2023-07-22T04:53:45;16.40;77.20
37560;DHT22;23398;50.928;7.084;2023-07-22T04:56:10;16.40;77.10
37560;DHT22;23398;50.928;7.084;2023-07-22T04:58:36;16.50;77.10
37560;DHT22;23398;50.928;7.084;2023-07-22T05:01:01;16.80;77.30
37560;DHT22;23398;50.928;7.084;2023-07-22T05:03:27;16.70;77.10
37560;DHT22;23398;50.928;7.084;2023-07-22T05:05:53;16.80;76.90
37560;DHT22;23398;50.928;7.084;2023-07-22T05:08:18;16.90;76.60
37560;DHT22;23398;50.928;7.084;2023-07-22T05:10:47;17.00;76.20
37560;DHT22;23398;50.928;7.084;2023-07-22T05:13:12;17.10;75.90
37560;DHT22;23398;50.928;7.084;2023-07-22T05:15:38;17.30;76.00
37560;DHT22;23398;50.928;7.084;2023-07-22T05:18:03;17.40;76.00
37560;DHT22;23398;50.928;7.084;2023-07-22T05:20:29;17.50;75.30
37560;DHT22;23398;50.928;7.084;2023-07-22T05:22:55;17.70;74.80
37560;DHT22;23398;50.928;7.084;2023-07-22T05:25:20;17.80;74.20
37560;DHT22;23398;50.928;7.084;2023-07-22T05:27:46;18.00;73.80
37560;DHT22;23398;50.928;7.084;2023-07-22T05:30:12;18.30;73.90
37560;DHT22;23398;50.928;7.084;2023-07-22T05:32:37;18.50;72.70
37560;DHT22;23398;50.928;7.084;2023-07-22T05:35:03;18.30;71.90
37560;DHT22;23398;50.928;7.084;2023-07-22T05:37:30;18.50;71.50
37560;DHT22;23398;50.928;7.084;2023-07-22T05:39:56;18.60;70.70
37560;DHT22;23398;50.928;7.084;2023-07-22T05:42:22;18.70;70.40
37560;DHT22;23398;50.928;7.084;2023-07-22T05:44:48;19.00;70.00
37560;DHT22;23398;50.928;7.084;2023-07-22T05:47:14;18.90;69.30
37560;DHT22;23398;50.928;7.084;2023-07-22T05:49:39;19.00;69.30
37560;DHT22;23398;50.928;7.084;2023-07-22T05:52:05;19.10;69.10
37560;DHT22;23398;50.928;7.084;2023-07-22T05:54:31;19.20;69.20
37560;DHT22;23398;50.928;7.084;2023-07-22T05:56:56;19.30;68.90
37560;DHT22;23398;50.928;7.084;2023-07-22T05:59:22;19.30;68.70
37560;DHT22;23398;50.928;7.084;2023-07-22T06:01:47;19.70;68.80
37560;DHT22;23398;50.928;7.084;2023-07-22T06:04:13;19.50;68.10
37560;DHT22;23398;50.928;7.084;2023-07-22T06:06:38;19.70;67.80
37560;DHT22;23398;50.928;7.084;2023-07-22T06:09:04;19.80;67.20
37560;DHT22;23398;50.928;7.084;2023-07-22T06:11:30;20.00;67.00
37560;DHT22;23398;50.928;7.084;2023-07-22T06:13:56;20.10;66.70
37560;DHT22;23398;50.928;7.084;2023-07-22T06:16:21;20.30;66.10
37560;DHT22;23398;50.928;7.084;2023-07-22T06:18:47;20.40;65.70
37560;DHT22;23398;50.928;7.084;2023-07-22T06:21:13;20.50;65.30
37560;DHT22;23398;50.928;7.084;2023-07-22T06:23:39;20.60;65.20
37560;DHT22;23398;50.928;7.084;2023-07-22T06:26:04;20.80;65.00
37560;DHT22;23398;50.928;7.084;2023-07-22T06:28:30;20.90;64.70
37560;DHT22;23398;50.928;7.084;2023-07-22T06:30:55;21.10;64.20
37560;DHT22;23398;50.928;7.084;2023-07-22T06:33:22;21.30;64.00
37560;DHT22;23398;50.928;7.084;2023-07-22T06:35:48;21.50;63.40
37560;DHT22;23398;50.928;7.084;2023-07-22T06:38:13;21.60;62.80
37560;DHT22;23398;50.928;7.084;2023-07-22T06:40:39;21.70;62.30
37560;DHT22;23398;50.928;7.084;2023-07-22T06:43:04;21.90;61.80
37560;DHT22;23398;50.928;7.084;2023-07-22T06:45:31;22.10;61.80
37560;DHT22;23398;50.928;7.084;2023-07-22T06:47:57;22.20;61.40
37560;DHT22;23398;50.928;7.084;2023-07-22T06:50:22;22.50;61.00
37560;DHT22;23398;50.928;7.084;2023-07-22T06:52:48;22.80;60.40
37560;DHT22;23398;50.928;7.084;2023-07-22T06:55:14;23.10;60.20
37560;DHT22;23398;50.928;7.084;2023-07-22T06:57:40;23.40;60.30
37560;DHT22;23398;50.928;7.084;2023-07-22T07:00:06;23.80;59.20
37560;DHT22;23398;50.928;7.084;2023-07-22T07:02:32;24.10;59.00
37560;DHT22;23398;50.928;7.084;2023-07-22T07:04:57;24.40;57.80
37560;DHT22;23398;50.928;7.084;2023-07-22T07:07:23;24.70;57.40
37560;DHT22;23398;50.928;7.084;2023-07-22T07:09:48;25.00;56.80
37560;DHT22;23398;50.928;7.084;2023-07-22T07:12:14;25.10;56.30
37560;DHT22;23398;50.928;7.084;2023-07-22T07:14:40;25.30;55.70
37560;DHT22;23398;50.928;7.084;2023-07-22T07:17:05;25.50;55.40
37560;DHT22;23398;50.928;7.084;2023-07-22T07:19:31;25.50;54.60
37560;DHT22;23398;50.928;7.084;2023-07-22T07:21:56;25.60;53.30
37560;DHT22;23398;50.928;7.084;2023-07-22T07:24:22;25.80;54.30
37560;DHT22;23398;50.928;7.084;2023-07-22T07:26:48;25.90;54.00
37560;DHT22;23398;50.928;7.084;2023-07-22T07:29:13;26.00;53.30
37560;DHT22;23398;50.928;7.084;2023-07-22T07:31:39;26.20;54.10
37560;DHT22;23398;50.928;7.084;2023-07-22T07:34:05;26.30;52.70
37560;DHT22;23398;50.928;7.084;2023-07-22T07:36:32;26.40;52.60
37560;DHT22;23398;50.928;7.084;2023-07-22T07:38:57;26.50;52.20
37560;DHT22;23398;50.928;7.084;2023-07-22T07:41:23;26.70;52.00
37560;DHT22;23398;50.928;7.084;2023-07-22T07:43:48;26.90;51.50
37560;DHT22;23398;50.928;7.084;2023-07-22T07:46:25;27.10;51.70
37560;DHT22;23398;50.928;7.084;2023-07-22T07:48:53;27.30;51.60
37560;DHT22;23398;50.928;7.084;2023-07-22T07:51:20;27.60;51.40
37560;DHT22;23398;50.928;7.084;2023-07-22T07:53:46;27.80;50.40
37560;DHT22;23398;50.928;7.084;2023-07-22T07:56:12;28.10;50.40
37560;DHT22;23398;50.928;7.084;2023-07-22T07:58:38;28.30;49.60
37560;DHT22;23398;50.928;7.084;2023-07-22T08:01:04;28.70;49.80
37560;DHT22;23398;50.928;7.084;2023-07-22T08:03:30;29.10;49.40
37560;DHT22;23398;50.928;7.084;2023-07-22T08:05:55;29.60;48.80
37560;DHT22;23398;50.928;7.084;2023-07-22T08:08:21;30.00;48.70
37560;DHT22;23398;50.928;7.084;2023-07-22T08:10:47;30.50;47.80
37560;DHT22;23398;50.928;7.084;2023-07-22T08:13:13;31.00;47.00
37560;DHT22;23398;50.928;7.084;2023-07-22T08:15:39;31.50;46.00
37560;DHT22;23398;50.928;7.084;2023-07-22T08:18:07;32.00;45.50
37560;DHT22;23398;50.928;7.084;2023-07-22T08:20:32;32.60;44.50
37560;DHT22;23398;50.928;7.084;2023-07-22T08:22:58;33.20;43.00
37560;DHT22;23398;50.928;7.084;2023-07-22T08:25:24;33.80;43.00
37560;DHT22;23398;50.928;7.084;2023-07-22T08:27:49;34.60;42.00
37560;DHT22;23398;50.928;7.084;2023-07-22T08:30:15;35.40;42.30
37560;DHT22;23398;50.928;7.084;2023-07-22T08:32:40;36.60;41.50
37560;DHT22;23398;50.928;7.084;2023-07-22T08:35:06;37.80;39.20
37560;DHT22;23398;50.928;7.084;2023-07-22T08:37:32;39.10;37.40
37560;DHT22;23398;50.928;7.084;2023-07-22T08:39:58;40.10;35.10
37560;DHT22;23398;50.928;7.084;2023-07-22T08:42:23;40.80;33.20
37560;DHT22;23398;50.928;7.084;2023-07-22T08:44:56;41.30;31.80
37560;DHT22;23398;50.928;7.084;2023-07-22T08:47:28;41.60;31.00
37560;DHT22;23398;50.928;7.084;2023-07-22T08:49:58;41.60;30.30
37560;DHT22;23398;50.928;7.084;2023-07-22T08:52:26;41.50;30.10
37560;DHT22;23398;50.928;7.084;2023-07-22T08:54:52;41.30;30.10
37560;DHT22;23398;50.928;7.084;2023-07-22T08:57:19;41.10;30.40
37560;DHT22;23398;50.928;7.084;2023-07-22T08:59:45;40.90;30.00
37560;DHT22;23398;50.928;7.084;2023-07-22T09:02:12;40.80;30.00
37560;DHT22;23398;50.928;7.084;2023-07-22T09:04:39;40.80;29.80
37560;DHT22;23398;50.928;7.084;2023-07-22T09:07:06;40.80;29.80
37560;DHT22;23398;50.928;7.084;2023-07-22T09:09:33;40.90;29.30
37560;DHT22;23398;50.928;7.084;2023-07-22T09:12:00;40.90;29.30
37560;DHT22;23398;50.928;7.084;2023-07-22T09:14:26;40.80;29.30
37560;DHT22;23398;50.928;7.084;2023-07-22T09:16:53;40.80;29.30
37560;DHT22;23398;50.928;7.084;2023-07-22T09:19:18;40.90;29.60
37560;DHT22;23398;50.928;7.084;2023-07-22T09:21:44;41.10;28.90
37560;DHT22;23398;50.928;7.084;2023-07-22T09:24:23;41.40;29.30
37560;DHT22;23398;50.928;7.084;2023-07-22T09:26:50;41.60;29.10
37560;DHT22;23398;50.928;7.084;2023-07-22T09:29:15;41.80;28.60
37560;DHT22;23398;50.928;7.084;2023-07-22T09:31:49;41.70;28.10
37560;DHT22;23398;50.928;7.084;2023-07-22T09:34:15;41.60;27.90
37560;DHT22;23398;50.928;7.084;2023-07-22T09:36:54;41.40;27.50
37560;DHT22;23398;50.928;7.084;2023-07-22T09:39:20;41.00;28.00
37560;DHT22;23398;50.928;7.084;2023-07-22T09:41:46;40.70;27.90
37560;DHT22;23398;50.928;7.084;2023-07-22T09:44:12;40.30;28.00
37560;DHT22;23398;50.928;7.084;2023-07-22T09:46:38;39.90;28.30
37560;DHT22;23398;50.928;7.084;2023-07-22T09:49:05;39.50;28.40
37560;DHT22;23398;50.928;7.084;2023-07-22T09:51:35;39.20;28.40
37560;DHT22;23398;50.928;7.084;2023-07-22T09:54:03;38.90;28.80
37560;DHT22;23398;50.928;7.084;2023-07-22T09:56:29;38.60;28.80
37560;DHT22;23398;50.928;7.084;2023-07-22T09:58:59;38.30;28.40
37560;DHT22;23398;50.928;7.084;2023-07-22T10:01:29;38.20;28.70
37560;DHT22;23398;50.928;7.084;2023-07-22T10:03:56;37.90;28.70
37560;DHT22;23398;50.928;7.084;2023-07-22T10:06:28;37.70;28.60
37560;DHT22;23398;50.928;7.084;2023-07-22T10:08:55;37.30;28.80
37560;DHT22;23398;50.928;7.084;2023-07-22T10:11:22;37.20;29.50
37560;DHT22;23398;50.928;7.084;2023-07-22T10:13:52;37.20;30.10
37560;DHT22;23398;50.928;7.084;2023-07-22T10:16:18;37.40;29.80
37560;DHT22;23398;50.928;7.084;2023-07-22T10:18:45;37.80;29.60
37560;DHT22;23398;50.928;7.084;2023-07-22T10:21:12;38.20;30.10
37560;DHT22;23398;50.928;7.084;2023-07-22T10:23:38;38.60;29.60
37560;DHT22;23398;50.928;7.084;2023-07-22T10:26:05;39.00;29.70
37560;DHT22;23398;50.928;7.084;2023-07-22T10:28:31;39.60;28.40
37560;DHT22;23398;50.928;7.084;2023-07-22T10:30:57;40.20;28.20
37560;DHT22;23398;50.928;7.084;2023-07-22T10:33:24;40.70;27.90
37560;DHT22;23398;50.928;7.084;2023-07-22T10:36:12;41.30;27.40
37560;DHT22;23398;50.928;7.084;2023-07-22T10:38:38;42.00;27.40
37560;DHT22;23398;50.928;7.084;2023-07-22T10:41:16;42.50;26.80
37560;DHT22;23398;50.928;7.084;2023-07-22T10:43:57;42.90;26.40
37560;DHT22;23398;50.928;7.084;2023-07-22T10:46:36;43.30;25.70
37560;DHT22;23398;50.928;7.084;2023-07-22T10:49:13;43.60;25.30
37560;DHT22;23398;50.928;7.084;2023-07-22T10:51:40;43.70;25.10
37560;DHT22;23398;50.928;7.084;2023-07-22T10:54:13;43.60;24.50
37560;DHT22;23398;50.928;7.084;2023-07-22T10:56:42;43.40;24.30
37560;DHT22;23398;50.928;7.084;2023-07-22T10:59:10;43.00;24.60
37560;DHT22;23398;50.928;7.084;2023-07-22T11:01:37;42.50;24.20
37560;DHT22;23398;50.928;7.084;2023-07-22T11:11:55;40.00;25.60
37560;DHT22;23398;50.928;7.084;2023-07-22T11:14:23;39.40;25.30
37560;DHT22;23398;50.928;7.084;2023-07-22T11:16:49;38.80;25.20
37560;DHT22;23398;50.928;7.084;2023-07-22T11:19:16;38.30;26.10
37560;DHT22;23398;50.928;7.084;2023-07-22T11:21:42;37.90;26.50
37560;DHT22;23398;50.928;7.084;2023-07-22T11:24:08;37.50;26.90
37560;DHT22;23398;50.928;7.084;2023-07-22T11:26:34;37.00;27.40
37560;DHT22;23398;50.928;7.084;2023-07-22T11:29:01;36.70;27.50
37560;DHT22;23398;50.928;7.084;2023-07-22T11:31:35;36.40;27.30
37560;DHT22;23398;50.928;7.084;2023-07-22T11:34:03;36.20;27.90
37560;DHT22;23398;50.928;7.084;2023-07-22T11:36:29;35.80;28.30
37560;DHT22;23398;50.928;7.084;2023-07-22T11:39:02;35.60;28.20
37560;DHT22;23398;50.928;7.084;2023-07-22T11:41:29;35.30;28.20
37560;DHT22;23398;50.928;7.084;2023-07-22T11:43:57;35.00;28.20
37560;DHT22;23398;50.928;7.084;2023-07-22T11:46:22;34.80;28.40
37560;DHT22;23398;50.928;7.084;2023-07-22T11:48:52;34.60;28.60
37560;DHT22;23398;50.928;7.084;2023-07-22T11:51:23;34.50;29.00
37560;DHT22;23398;50.928;7.084;2023-07-22T11:53:50;34.20;29.10
37560;DHT22;23398;50.928;7.084;2023-07-22T11:56:26;34.00;29.00
37560;DHT22;23398;50.928;7.084;2023-07-22T11:58:54;33.80;29.70
37560;DHT22;23398;50.928;7.084;2023-07-22T12:01:21;33.60;28.70
37560;DHT22;23398;50.928;7.084;2023-07-22T12:03:47;33.40;29.20
37560;DHT22;23398;50.928;7.084;2023-07-22T12:06:14;33.30;30.30
37560;DHT22;23398;50.928;7.084;2023-07-22T12:08:47;33.20;29.70
37560;DHT22;23398;50.928;7.084;2023-07-22T12:11:23;33.20;29.80
37560;DHT22;23398;50.928;7.084;2023-07-22T12:14:06;33.20;30.20
37560;DHT22;23398;50.928;7.084;2023-07-22T12:16:38;33.10;30.80
37560;DHT22;23398;50.928;7.084;2023-07-22T12:19:04;33.10;30.20
37560;DHT22;23398;50.928;7.084;2023-07-22T12:21:30;33.10;30.20
37560;DHT22;23398;50.928;7.084;2023-07-22T12:23:57;33.10;29.60
37560;DHT22;23398;50.928;7.084;2023-07-22T12:26:22;33.10;29.80
37560;DHT22;23398;50.928;7.084;2023-07-22T12:28:48;32.90;30.30
37560;DHT22;23398;50.928;7.084;2023-07-22T12:31:13;32.80;31.20
37560;DHT22;23398;50.928;7.084;2023-07-22T12:33:39;32.70;30.40
37560;DHT22;23398;50.928;7.084;2023-07-22T12:36:05;32.70;30.50
37560;DHT22;23398;50.928;7.084;2023-07-22T12:38:31;32.70;30.40
37560;DHT22;23398;50.928;7.084;2023-07-22T12:40:57;32.70;30.30
37560;DHT22;23398;50.928;7.084;2023-07-22T12:43:22;32.60;29.90
37560;DHT22;23398;50.928;7.084;2023-07-22T12:45:48;32.60;30.20
37560;DHT22;23398;50.928;7.084;2023-07-22T12:48:14;32.70;30.40
37560;DHT22;23398;50.928;7.084;2023-07-22T12:50:39;32.60;30.40
37560;DHT22;23398;50.928;7.084;2023-07-22T12:53:05;32.60;29.40
37560;DHT22;23398;50.928;7.084;2023-07-22T12:55:30;32.50;29.80
37560;DHT22;23398;50.928;7.084;2023-07-22T12:57:56;32.60;30.10
37560;DHT22;23398;50.928;7.084;2023-07-22T13:00:22;32.50;30.20
37560;DHT22;23398;50.928;7.084;2023-07-22T13:02:48;32.40;30.20
37560;DHT22;23398;50.928;7.084;2023-07-22T13:05:13;32.40;30.20
37560;DHT22;23398;50.928;7.084;2023-07-22T13:07:39;32.20;29.90
37560;DHT22;23398;50.928;7.084;2023-07-22T13:10:06;32.10;30.00
37560;DHT22;23398;50.928;7.084;2023-07-22T13:12:37;31.90;31.00
37560;DHT22;23398;50.928;7.084;2023-07-22T13:15:04;31.80;30.40
37560;DHT22;23398;50.928;7.084;2023-07-22T13:17:30;31.70;30.20
37560;DHT22;23398;50.928;7.084;2023-07-22T13:19:55;31.60;30.60
37560;DHT22;23398;50.928;7.084;2023-07-22T13:22:21;31.50;30.20
37560;DHT22;23398;50.928;7.084;2023-07-22T13:24:46;31.40;30.00
37560;DHT22;23398;50.928;7.084;2023-07-22T13:27:12;31.30;30.40
37560;DHT22;23398;50.928;7.084;2023-07-22T13:29:38;31.30;30.70
37560;DHT22;23398;50.928;7.084;2023-07-22T13:32:04;31.20;30.70
37560;DHT22;23398;50.928;7.084;2023-07-22T13:34:29;31.10;30.40
37560;DHT22;23398;50.928;7.084;2023-07-22T13:36:55;31.10;30.40
37560;DHT22;23398;50.928;7.084;2023-07-22T13:39:20;31.10;31.00
37560;DHT22;23398;50.928;7.084;2023-07-22T13:41:46;31.00;31.10
37560;DHT22;23398;50.928;7.084;2023-07-22T13:44:12;31.00;31.10
37560;DHT22;23398;50.928;7.084;2023-07-22T13:46:38;31.00;31.20
37560;DHT22;23398;50.928;7.084;2023-07-22T13:49:04;31.00;31.50
37560;DHT22;23398;50.928;7.084;2023-07-22T13:51:29;31.00;31.50
37560;DHT22;23398;50.928;7.084;2023-07-22T13:53:55;30.90;31.50
37560;DHT22;23398;50.928;7.084;2023-07-22T13:56:20;30.80;31.70
37560;DHT22;23398;50.928;7.084;2023-07-22T13:58:46;30.70;32.40
37560;DHT22;23398;50.928;7.084;2023-07-22T14:01:13;30.70;31.90
37560;DHT22;23398;50.928;7.084;2023-07-22T14:03:38;30.70;31.50
37560;DHT22;23398;50.928;7.084;2023-07-22T14:06:04;30.60;31.40
37560;DHT22;23398;50.928;7.084;2023-07-22T14:08:30;30.60;31.60
37560;DHT22;23398;50.928;7.084;2023-07-22T14:10:55;30.80;32.00
37560;DHT22;23398;50.928;7.084;2023-07-22T14:13:21;30.50;31.70
37560;DHT22;23398;50.928;7.084;2023-07-22T14:15:46;30.50;31.60
37560;DHT22;23398;50.928;7.084;2023-07-22T14:18:12;30.40;32.10
37560;DHT22;23398;50.928;7.084;2023-07-22T14:20:45;30.40;32.10
37560;DHT22;23398;50.928;7.084;2023-07-22T14:23:11;30.40;31.80
37560;DHT22;23398;50.928;7.084;2023-07-22T14:25:36;30.30;32.00
37560;DHT22;23398;50.928;7.084;2023-07-22T14:28:02;30.30;32.00
37560;DHT22;23398;50.928;7.084;2023-07-22T14:30:28;30.30;32.20
37560;DHT22;23398;50.928;7.084;2023-07-22T14:32:53;30.30;31.80
37560;DHT22;23398;50.928;7.084;2023-07-22T14:35:19;30.30;31.60
37560;DHT22;23398;50.928;7.084;2023-07-22T14:37:44;30.20;31.80
37560;DHT22;23398;50.928;7.084;2023-07-22T14:40:11;30.20;31.80
37560;DHT22;23398;50.928;7.084;2023-07-22T14:42:37;30.20;32.00
37560;DHT22;23398;50.928;7.084;2023-07-22T14:45:03;30.10;32.20
37560;DHT22;23398;50.928;7.084;2023-07-22T14:47:30;30.00;32.10
37560;DHT22;23398;50.928;7.084;2023-07-22T14:49:56;30.00;32.30
37560;DHT22;23398;50.928;7.084;2023-07-22T14:52:21;29.90;32.00
37560;DHT22;23398;50.928;7.084;2023-07-22T14:54:48;29.90;32.10
37560;DHT22;23398;50.928;7.084;2023-07-22T14:57:14;29.90;32.20
37560;DHT22;23398;50.928;7.084;2023-07-22T14:59:40;29.80;32.60
37560;DHT22;23398;50.928;7.084;2023-07-22T15:02:06;29.80;32.70
37560;DHT22;23398;50.928;7.084;2023-07-22T15:04:31;29.70;32.60
37560;DHT22;23398;50.928;7.084;2023-07-22T15:06:57;29.70;32.20
37560;DHT22;23398;50.928;7.084;2023-07-22T15:09:22;29.70;32.30
37560;DHT22;23398;50.928;7.084;2023-07-22T15:11:48;29.70;32.80
37560;DHT22;23398;50.928;7.084;2023-07-22T15:14:13;29.60;32.30
37560;DHT22;23398;50.928;7.084;2023-07-22T15:16:39;29.60;32.40
37560;DHT22;23398;50.928;7.084;2023-07-22T15:19:06;29.60;32.60
37560;DHT22;23398;50.928;7.084;2023-07-22T15:21:32;29.60;32.40
37560;DHT22;23398;50.928;7.084;2023-07-22T15:23:58;29.50;32.20
37560;DHT22;23398;50.928;7.084;2023-07-22T15:26:23;29.50;32.60
37560;DHT22;23398;50.928;7.084;2023-07-22T15:28:49;29.50;33.00
37560;DHT22;23398;50.928;7.084;2023-07-22T15:31:18;29.50;33.40
37560;DHT22;23398;50.928;7.084;2023-07-22T15:33:44;29.50;33.30